createdAt,value
2022-08-31T00:01:28.602Z,1.98
2022-08-31T00:05:11.648Z,2.38
2022-08-31T00:08:53.949Z,2.28
2022-08-31T00:12:35.755Z,1.77
2022-08-31T00:16:17.637Z,1.95
2022-08-31T00:19:59.557Z,1.70
2022-08-31T00:23:41.464Z,2.25
2022-08-31T00:27:23.524Z,2.38
2022-08-31T00:31:05.420Z,1.80
2022-08-31T00:34:48.037Z,2.28
2022-08-31T00:38:30.150Z,2.22
2022-08-31T00:42:12.503Z,2.38
2022-08-31T00:45:54.423Z,1.98
2022-08-31T00:49:39.401Z,2.20
2022-08-31T00:53:21.363Z,2.28
2022-08-31T00:57:04.639Z,2.55
2022-08-31T01:00:47.287Z,2.30
2022-08-31T01:04:30.035Z,2.65
2022-08-31T01:08:12.571Z,2.90
2022-08-31T01:11:54.711Z,2.28
2022-08-31T01:15:38.108Z,2.45
2022-08-31T01:19:41.857Z,2.47
2022-08-31T01:23:27.381Z,2.90
2022-08-31T01:27:09.730Z,2.83
2022-08-31T01:31:02.575Z,2.42
2022-08-31T01:34:44.436Z,2.20
2022-08-31T01:38:27.360Z,2.60
2022-08-31T01:42:09.192Z,2.40
2022-08-31T01:45:52.064Z,2.05
2022-08-31T01:49:33.992Z,3.08
2022-08-31T01:53:16.275Z,2.80
2022-08-31T01:56:58.460Z,2.05
2022-08-31T02:00:41.291Z,2.47
2022-08-31T02:04:26.921Z,2.30
2022-08-31T02:08:11.529Z,2.72
2022-08-31T02:11:53.647Z,2.55
2022-08-31T02:15:35.628Z,2.90
2022-08-31T02:19:17.839Z,1.90
2022-08-31T02:23:03.405Z,2.55
2022-08-31T02:26:45.511Z,2.55
2022-08-31T02:30:27.619Z,2.55
2022-08-31T02:34:09.532Z,2.38
2022-08-31T02:37:51.844Z,2.10
2022-08-31T02:41:33.702Z,2.50
2022-08-31T02:45:15.714Z,2.42
2022-08-31T02:48:57.656Z,2.42
2022-08-31T02:52:39.680Z,2.42
2022-08-31T02:56:21.580Z,2.60
2022-08-31T03:00:06.243Z,2.78
2022-08-31T03:03:48.894Z,2.13
2022-08-31T03:07:31.141Z,2.67
2022-08-31T03:11:13.530Z,2.40
2022-08-31T03:14:55.429Z,2.50
2022-08-31T03:18:37.332Z,2.13
2022-08-31T03:22:19.156Z,2.70
2022-08-31T03:26:05.498Z,2.25
2022-08-31T03:29:47.443Z,2.40
2022-08-31T03:33:29.288Z,2.70
2022-08-31T03:37:11.486Z,3.05
2022-08-31T03:40:53.360Z,2.55
2022-08-31T03:44:35.268Z,2.22
2022-08-31T03:48:17.388Z,2.38
2022-08-31T03:51:59.399Z,3.15
2022-08-31T03:55:42.933Z,2.75
2022-08-31T03:59:24.817Z,2.63
2022-08-31T04:03:06.902Z,3.00
2022-08-31T04:06:48.897Z,2.60
2022-08-31T04:10:30.758Z,3.17
2022-08-31T04:14:15.428Z,2.95
2022-08-31T04:17:57.658Z,2.70
2022-08-31T04:21:41.178Z,3.05
2022-08-31T04:25:26.140Z,3.17
2022-08-31T04:29:13.151Z,2.85
2022-08-31T04:32:57.101Z,2.63
2022-08-31T04:36:39.336Z,3.22
2022-08-31T04:40:25.559Z,3.85
2022-08-31T04:47:50.211Z,2.85
2022-08-31T04:51:35.543Z,2.83
2022-08-31T04:55:18.028Z,3.55
2022-08-31T04:59:03.787Z,3.28
2022-08-31T05:02:50.047Z,3.40
2022-08-31T05:06:36.514Z,3.13
2022-08-31T05:10:18.763Z,2.97
2022-08-31T05:14:02.213Z,3.30
2022-08-31T05:17:44.019Z,2.50
2022-08-31T05:21:28.575Z,3.35
2022-08-31T05:25:10.397Z,2.67
2022-08-31T05:28:52.896Z,3.33
2022-08-31T05:32:34.900Z,3.20
2022-08-31T05:36:20.001Z,2.78
2022-08-31T05:40:01.962Z,2.80
2022-08-31T05:43:44.024Z,2.60
2022-08-31T05:47:25.957Z,2.55
2022-08-31T05:51:13.869Z,2.50
2022-08-31T05:54:55.983Z,3.10
2022-08-31T05:58:39.697Z,2.65
2022-08-31T06:02:21.623Z,2.83
2022-08-31T06:06:03.528Z,2.97
2022-08-31T06:09:45.406Z,2.80
2022-08-31T06:13:27.293Z,3.00
2022-08-31T06:17:09.111Z,2.95
2022-08-31T06:20:51.088Z,2.72
2022-08-31T06:24:32.939Z,2.53
2022-08-31T06:28:15.451Z,3.38
2022-08-31T06:31:57.843Z,3.40
2022-08-31T06:35:40.430Z,3.20
2022-08-31T06:39:22.555Z,3.15
2022-08-31T06:43:04.922Z,2.97
2022-08-31T06:46:47.504Z,2.92
2022-08-31T06:50:29.849Z,3.15
2022-08-31T06:54:29.347Z,3.80
2022-08-31T06:58:11.929Z,4.15
2022-08-31T07:01:53.898Z,3.30
2022-08-31T07:05:38.380Z,4.10
2022-08-31T07:09:20.209Z,3.65
2022-08-31T07:13:02.038Z,3.97
2022-08-31T07:16:45.360Z,4.20
2022-08-31T07:20:27.414Z,3.85
2022-08-31T07:24:10.431Z,4.22
2022-08-31T07:27:55.428Z,4.03
2022-08-31T07:31:46.586Z,4.10
2022-08-31T07:35:30.255Z,4.70
2022-08-31T07:39:30.720Z,4.10
2022-08-31T07:43:13.398Z,4.65
2022-08-31T07:46:56.030Z,4.35
2022-08-31T07:50:44.939Z,4.63
2022-08-31T07:54:28.310Z,4.07
2022-08-31T07:58:13.464Z,4.55
2022-08-31T08:01:56.664Z,4.55
2022-08-31T08:05:41.802Z,4.55
2022-08-31T08:09:28.415Z,4.38
2022-08-31T08:13:12.673Z,4.65
2022-08-31T08:16:55.048Z,4.22
2022-08-31T08:20:38.760Z,3.85
2022-08-31T08:24:21.000Z,4.80
2022-08-31T08:28:17.141Z,3.90
2022-08-31T08:32:05.285Z,3.42
2022-08-31T08:36:00.914Z,3.58
2022-08-31T08:39:43.212Z,2.95
2022-08-31T08:43:33.416Z,2.58
2022-08-31T08:47:37.652Z,3.17
2022-08-31T08:51:25.171Z,2.65
2022-08-31T08:55:32.339Z,2.53
2022-08-31T08:59:19.640Z,2.75
2022-08-31T09:03:12.468Z,2.30
2022-08-31T09:07:18.923Z,2.72
2022-08-31T09:11:07.145Z,2.23
2022-08-31T09:15:19.228Z,2.00
2022-08-31T09:19:21.799Z,2.40
2022-08-31T09:23:08.021Z,2.30
2022-08-31T09:26:56.331Z,2.03
2022-08-31T09:30:43.736Z,2.10
2022-08-31T09:34:29.489Z,2.20
2022-08-31T09:38:25.385Z,1.77
2022-08-31T09:42:32.171Z,1.63
2022-08-31T09:46:31.114Z,1.40
2022-08-31T09:50:30.483Z,1.50
2022-08-31T09:54:34.906Z,1.40
2022-08-31T09:58:30.942Z,1.48
2022-08-31T10:02:23.136Z,2.22
2022-08-31T10:06:09.671Z,1.42
2022-08-31T10:10:28.053Z,1.38
2022-08-31T10:14:31.763Z,1.40
2022-08-31T10:18:35.435Z,1.60
2022-08-31T10:22:28.409Z,1.63
2022-08-31T10:26:31.668Z,1.40
2022-08-31T10:30:22.696Z,1.20
2022-08-31T10:34:29.211Z,1.65
2022-08-31T10:38:27.623Z,1.15
2022-08-31T10:42:18.363Z,1.70
2022-08-31T10:46:03.619Z,1.35
2022-08-31T10:49:45.809Z,1.02
2022-08-31T10:54:01.457Z,1.05
2022-08-31T10:58:07.599Z,1.15
2022-08-31T11:02:21.874Z,1.15
2022-08-31T11:06:15.273Z,1.03
2022-08-31T11:10:25.945Z,1.33
2022-08-31T11:14:22.978Z,1.23
2022-08-31T11:18:24.732Z,1.38
2022-08-31T11:22:34.473Z,1.38
2022-08-31T11:26:51.376Z,1.50
2022-08-31T11:30:41.744Z,1.13
2022-08-31T11:34:29.762Z,1.10
2022-08-31T11:38:52.312Z,1.13
2022-08-31T11:42:40.716Z,1.40
2022-08-31T11:46:31.798Z,1.25
2022-08-31T11:50:36.535Z,0.77
2022-08-31T11:54:26.823Z,1.10
2022-08-31T11:58:20.146Z,1.00
2022-08-31T12:02:21.632Z,1.40
2022-08-31T12:06:05.667Z,1.50
2022-08-31T12:10:02.308Z,1.13
2022-08-31T12:14:13.399Z,1.05
2022-08-31T12:18:20.157Z,1.00
2022-08-31T12:22:41.353Z,1.10
2022-08-31T12:26:44.927Z,1.00
2022-08-31T12:30:28.744Z,1.10
2022-08-31T12:34:13.687Z,1.45
2022-08-31T12:38:07.721Z,1.13
2022-08-31T12:42:03.471Z,0.98
2022-08-31T12:45:57.289Z,0.80
2022-08-31T12:50:08.414Z,1.25
2022-08-31T12:54:18.888Z,0.95
2022-08-31T12:58:51.188Z,0.95
2022-08-31T13:02:38.085Z,0.80
2022-08-31T13:06:30.786Z,0.95
2022-08-31T13:10:26.438Z,0.82
2022-08-31T13:14:39.240Z,0.70
2022-08-31T13:18:26.592Z,0.77
2022-08-31T13:22:17.208Z,0.82
2022-08-31T13:26:15.276Z,1.80
2022-08-31T13:30:10.254Z,0.80
2022-08-31T13:33:57.044Z,0.75
2022-08-31T13:37:43.502Z,0.77
2022-08-31T13:41:30.110Z,1.05
2022-08-31T13:45:26.674Z,0.80
2022-08-31T13:49:22.104Z,0.80
2022-08-31T13:57:25.405Z,1.20
2022-08-31T14:01:25.588Z,0.90
2022-08-31T14:05:11.052Z,0.55
2022-08-31T14:09:05.707Z,0.90
2022-08-31T14:12:51.662Z,1.17
2022-08-31T14:16:37.621Z,0.90
2022-08-31T14:20:44.160Z,0.90
2022-08-31T14:24:35.519Z,1.00
2022-08-31T14:28:17.627Z,1.20
2022-08-31T14:31:59.984Z,0.90
2022-08-31T14:35:41.812Z,0.82
2022-08-31T14:39:50.605Z,0.95
2022-08-31T14:43:32.456Z,0.85
2022-08-31T14:47:14.781Z,0.77
2022-08-31T14:50:56.676Z,1.15
2022-08-31T14:54:39.141Z,0.70
2022-08-31T14:58:23.964Z,0.82
2022-08-31T15:02:08.807Z,1.10
2022-08-31T15:05:51.315Z,1.27
2022-08-31T15:09:34.653Z,0.70
2022-08-31T15:13:17.721Z,0.85
2022-08-31T15:17:01.056Z,0.90
2022-08-31T15:20:42.996Z,1.10
2022-08-31T15:24:25.571Z,0.70
2022-08-31T15:28:08.699Z,1.05
2022-08-31T15:31:52.903Z,1.00
2022-08-31T15:35:39.789Z,1.17
2022-08-31T15:39:32.417Z,0.90
2022-08-31T15:43:15.859Z,0.93
2022-08-31T15:47:16.236Z,0.73
2022-08-31T15:51:01.439Z,0.75
2022-08-31T15:54:43.363Z,1.10
2022-08-31T15:58:26.055Z,0.80
2022-08-31T16:02:09.617Z,0.82
2022-08-31T16:05:51.525Z,1.02
2022-08-31T16:09:33.480Z,1.42
2022-08-31T16:13:16.173Z,1.10
2022-08-31T16:16:59.835Z,0.90
2022-08-31T16:20:46.853Z,1.05
2022-08-31T16:24:35.886Z,0.90
2022-08-31T16:28:20.383Z,1.40
2022-08-31T16:32:03.940Z,1.02
2022-08-31T16:35:45.971Z,0.80
2022-08-31T16:39:28.424Z,1.20
2022-08-31T16:43:10.983Z,0.80
2022-08-31T16:46:52.844Z,0.90
2022-08-31T16:50:34.693Z,0.90
2022-08-31T16:54:19.149Z,0.80
2022-08-31T16:58:01.192Z,0.75
2022-08-31T17:01:45.928Z,1.10
2022-08-31T17:05:27.821Z,1.00
2022-08-31T17:09:30.539Z,0.63
2022-08-31T17:13:12.763Z,1.25
2022-08-31T17:16:55.169Z,1.20
2022-08-31T17:20:39.858Z,1.17
2022-08-31T17:24:24.796Z,0.80
2022-08-31T17:28:07.630Z,1.15
2022-08-31T17:31:50.544Z,1.00
2022-08-31T17:35:32.465Z,1.17
2022-08-31T17:39:16.883Z,0.90
2022-08-31T17:43:00.042Z,0.90
2022-08-31T17:46:50.247Z,1.08
2022-08-31T17:50:32.151Z,1.30
2022-08-31T17:54:18.612Z,1.10
2022-08-31T17:58:00.753Z,1.20
2022-08-31T18:01:44.773Z,1.38
2022-08-31T18:05:27.947Z,1.10
2022-08-31T18:09:09.906Z,1.25
2022-08-31T18:12:51.769Z,1.10
2022-08-31T18:16:34.027Z,1.15
2022-08-31T18:20:16.325Z,1.30
2022-08-31T18:23:58.103Z,1.23
2022-08-31T18:27:39.994Z,1.40
2022-08-31T18:31:30.725Z,1.23
2022-08-31T18:35:14.437Z,1.38
2022-08-31T18:38:59.422Z,1.30
2022-08-31T18:42:59.698Z,1.20
2022-08-31T18:46:41.553Z,1.20
2022-08-31T18:50:24.596Z,1.25
2022-08-31T18:54:07.020Z,3.83
2022-08-31T18:57:49.565Z,2.53
2022-08-31T19:01:33.866Z,1.50
2022-08-31T19:05:16.232Z,1.20
2022-08-31T19:08:58.117Z,1.42
2022-08-31T19:12:42.806Z,1.38
2022-08-31T19:16:27.952Z,1.33
2022-08-31T19:20:10.689Z,1.33
2022-08-31T19:23:53.516Z,1.00
2022-08-31T19:27:36.667Z,1.10
2022-08-31T19:31:20.864Z,1.48
2022-08-31T19:35:02.962Z,1.30
2022-08-31T19:38:47.024Z,1.20
2022-08-31T19:46:32.997Z,1.42
2022-08-31T19:50:16.421Z,1.23
2022-08-31T19:54:00.913Z,1.38
2022-08-31T19:57:43.511Z,1.58
2022-08-31T20:01:33.699Z,1.77
2022-08-31T20:05:16.328Z,1.48
2022-08-31T20:08:58.419Z,1.20
2022-08-31T20:12:42.529Z,1.65
2022-08-31T20:16:33.300Z,1.10
2022-08-31T20:20:15.420Z,1.02
2022-08-31T20:24:01.608Z,1.25
2022-08-31T20:27:43.629Z,1.23
2022-08-31T20:31:25.872Z,1.60
2022-08-31T20:35:08.293Z,1.48
2022-08-31T20:38:59.515Z,1.17
2022-08-31T20:42:42.455Z,1.08
2022-08-31T20:46:42.733Z,1.08
2022-08-31T20:50:26.418Z,1.17
2022-08-31T20:54:08.314Z,1.00
2022-08-31T20:57:51.118Z,0.80
2022-08-31T21:01:33.083Z,1.05
2022-08-31T21:05:37.483Z,0.90
2022-08-31T21:09:20.335Z,0.70
2022-08-31T21:13:02.253Z,1.10
2022-08-31T21:16:44.693Z,0.90
2022-08-31T21:20:26.711Z,1.15
2022-08-31T21:24:10.064Z,1.08
2022-08-31T21:27:53.115Z,0.98
2022-08-31T21:31:35.007Z,0.80
2022-08-31T21:35:23.921Z,1.45
2022-08-31T21:39:08.671Z,0.90
2022-08-31T21:42:50.638Z,0.90
2022-08-31T21:46:33.835Z,1.25
2022-08-31T21:50:15.770Z,1.02
2022-08-31T21:54:03.692Z,0.82
2022-08-31T21:57:45.552Z,1.40
2022-08-31T22:01:29.501Z,1.10
2022-08-31T22:05:12.585Z,1.17
2022-08-31T22:09:00.142Z,1.05
2022-08-31T22:12:42.104Z,1.65
2022-08-31T22:16:25.497Z,1.10
2022-08-31T22:20:07.946Z,1.20
2022-08-31T22:23:52.540Z,1.60
2022-08-31T22:27:35.447Z,1.65
2022-08-31T22:31:20.527Z,1.02
2022-08-31T22:35:02.579Z,1.08
2022-08-31T22:38:45.372Z,1.27
2022-08-31T22:42:27.274Z,1.27
2022-08-31T22:46:20.396Z,1.33
2022-08-31T22:50:02.315Z,1.33
2022-08-31T22:53:46.599Z,1.13
2022-08-31T22:57:28.415Z,1.05
2022-08-31T23:01:24.204Z,1.35
2022-08-31T23:05:07.031Z,2.47
2022-08-31T23:08:50.515Z,1.15
2022-08-31T23:12:32.512Z,1.52
2022-08-31T23:16:15.215Z,1.20
2022-08-31T23:19:57.540Z,1.20
2022-08-31T23:23:39.905Z,1.20
2022-08-31T23:27:22.187Z,1.27
2022-08-31T23:31:07.667Z,1.40
2022-08-31T23:34:50.945Z,1.08
2022-08-31T23:38:34.084Z,1.20
2022-08-31T23:42:17.283Z,1.42
2022-08-31T23:46:02.261Z,0.75
2022-08-31T23:49:46.031Z,1.17
2022-08-31T23:53:28.073Z,1.63
2022-08-31T23:57:23.399Z,1.15
